Time;durP1;ratioP1;P1;durP2;ratioP2;P2;SDS_P1;SDS_P2;PMS_P1;PMS_P2;Temp;Humidity;BMP_temperature;BMP_pressure;BME280_temperature;BME280_humidity;BME280_pressure;Samples;Min_cycle;Max_cycle;Signal;HPM_P1;HPM_P2
2023/05/05 00:02:21;;;;;;;18.30;10.65;;;;;;;15.20;89.27;101285.66;4998952;28;20974;-72
2023/05/05 00:04:47;;;;;;;22.85;10.13;;;;;;;15.24;88.51;101292.50;5008154;28;20037;-73
2023/05/05 00:07:12;;;;;;;14.27;10.80;;;;;;;15.27;88.54;101294.13;5012999;28;20046;-72
2023/05/05 00:09:38;;;;;;;16.98;10.02;;;;;;;15.36;86.67;101297.91;4997375;28;20026;-72
2023/05/05 00:12:03;;;;;;;12.68;9.57;;;;;;;15.45;85.77;101305.28;5009015;28;20995;-72
2023/05/05 00:14:30;;;;;;;18.52;10.90;;;;;;;15.39;87.14;101300.38;4996848;28;20026;-71
2023/05/05 00:16:55;;;;;;;17.92;10.13;;;;;;;15.43;86.76;101296.50;5011587;28;20444;-72
2023/05/05 00:19:21;;;;;;;17.77;10.68;;;;;;;15.42;87.54;101297.47;4996197;28;20038;-71
2023/05/05 00:21:47;;;;;;;12.98;8.85;;;;;;;15.50;88.06;101298.59;4997912;28;20038;-71
2023/05/05 00:24:12;;;;;;;13.68;9.95;;;;;;;15.40;89.42;101302.94;5004637;28;20034;-71
2023/05/05 00:26:38;;;;;;;22.27;10.65;;;;;;;15.34;91.73;101298.06;5017106;28;20034;-70
2023/05/05 00:29:05;;;;;;;16.17;12.18;;;;;;;15.26;91.87;101304.03;5008283;28;20030;-71
2023/05/05 00:31:30;;;;;;;15.95;10.18;;;;;;;15.38;91.70;101296.00;5000738;28;20038;-71
2023/05/05 00:33:56;;;;;;;18.58;11.02;;;;;;;15.40;91.58;101284.13;5001608;28;20496;-71
2023/05/05 00:36:21;;;;;;;16.90;11.30;;;;;;;15.25;95.37;101282.63;5001089;28;20358;-72
2023/05/05 00:38:47;;;;;;;14.50;10.48;;;;;;;15.25;94.92;101288.00;5007691;28;20049;-72
2023/05/05 00:41:12;;;;;;;18.08;11.32;;;;;;;15.36;95.06;101289.84;4999343;28;20050;-73
2023/05/05 00:43:38;;;;;;;15.90;10.98;;;;;;;15.33;97.09;101282.91;4998266;28;20050;-71
2023/05/05 00:46:17;;;;;;;20.30;11.20;;;;;;;15.24;98.85;101278.22;5012597;28;20733;-71
2023/05/05 00:48:42;;;;;;;23.25;10.85;;;;;;;15.20;99.71;101277.59;5010896;28;21350;-71
2023/05/05 00:51:09;;;;;;;22.13;11.65;;;;;;;15.20;96.35;101285.66;5003232;28;20053;-71
2023/05/05 00:53:37;;;;;;;17.20;10.90;;;;;;;15.11;97.41;101286.38;5000030;28;20381;-72
2023/05/05 00:56:04;;;;;;;15.73;11.57;;;;;;;15.19;96.04;101275.88;4996360;28;20038;-72
2023/05/05 00:58:29;;;;;;;18.02;11.38;;;;;;;15.14;95.85;101286.13;5008558;28;20045;-72
2023/05/05 01:00:55;;;;;;;19.08;11.23;;;;;;;15.12;97.91;101287.22;4996911;28;20038;-72
2023/05/05 01:03:21;;;;;;;15.50;11.70;;;;;;;15.14;98.42;101288.81;4997523;28;20455;-72
2023/05/05 01:06:05;;;;;;;16.50;12.75;;;;;;;15.17;100.00;101279.69;5009282;28;20125;-71
2023/05/05 01:08:37;;;;;;;16.13;11.90;;;;;;;15.07;100.00;101282.19;4994578;28;20122;-71
2023/05/05 01:11:30;;;;;;;20.27;12.07;;;;;;;15.15;100.00;101286.97;4993218;28;20168;-73
2023/05/05 01:14:16;;;;;;;20.45;13.75;;;;;;;15.07;100.00;101284.88;4990652;28;20046;-72
2023/05/05 01:16:57;;;;;;;22.15;14.27;;;;;;;15.11;100.00;101286.38;5003332;28;20133;-72
2023/05/05 01:19:47;;;;;;;19.40;13.48;;;;;;;15.15;100.00;101282.47;5001414;28;20038;-71
2023/05/05 01:22:16;;;;;;;20.10;12.85;;;;;;;15.14;100.00;101277.22;5005533;28;20046;-72
2023/05/05 01:25:05;;;;;;;19.85;13.90;;;;;;;15.15;100.00;101286.97;4995710;28;20038;-72
2023/05/05 01:28:02;;;;;;;19.92;13.50;;;;;;;15.14;100.00;101294.19;4994051;28;20027;-71
2023/05/05 01:30:57;;;;;;;21.25;14.00;;;;;;;15.09;100.00;101291.00;4991380;28;20117;-72
2023/05/05 01:33:26;;;;;;;19.48;13.85;;;;;;;15.24;100.00;101291.66;5005038;28;20986;-73
2023/05/05 01:35:58;;;;;;;17.02;12.75;;;;;;;15.15;100.00;101293.22;4991849;28;20037;-72
2023/05/05 01:38:31;;;;;;;16.77;12.20;;;;;;;15.27;100.00;101296.81;4990429;28;20161;-73
2023/05/05 01:41:00;;;;;;;19.75;12.70;;;;;;;15.22;99.42;101294.47;4992945;28;20034;-71
2023/05/05 01:43:29;;;;;;;24.48;12.82;;;;;;;15.29;96.50;101295.72;5004248;28;20117;-72
2023/05/05 01:45:58;;;;;;;22.13;12.48;;;;;;;15.23;96.39;101309.63;5006274;28;20125;-72
2023/05/05 01:48:25;;;;;;;18.08;12.65;;;;;;;15.25;95.45;101317.56;4991142;28;20034;-72
2023/05/05 01:50:52;;;;;;;22.38;14.40;;;;;;;15.23;94.82;101323.06;4999959;28;20093;-72
2023/05/05 01:53:22;;;;;;;29.05;13.85;;;;;;;15.23;94.64;101322.19;5004582;28;20069;-72
2023/05/05 01:55:49;;;;;;;22.35;14.77;;;;;;;15.28;93.93;101320.03;4992625;28;20449;-71
2023/05/05 01:58:16;;;;;;;26.42;16.17;;;;;;;15.31;94.23;101310.84;5005161;28;20046;-72
2023/05/05 02:00:45;;;;;;;24.20;15.73;;;;;;;15.29;95.30;101317.22;5003610;28;20038;-71
2023/05/05 02:03:13;;;;;;;27.05;16.25;;;;;;;15.35;95.70;101331.16;4992139;28;20471;-72
2023/05/05 02:05:46;;;;;;;30.40;15.93;;;;;;;15.36;96.71;101327.47;4991154;28;20041;-73
2023/05/05 02:08:12;;;;;;;25.23;16.85;;;;;;;15.40;96.72;101327.13;5005734;28;20984;-72
2023/05/05 02:10:39;;;;;;;31.45;17.50;;;;;;;15.39;97.36;101327.25;5006570;28;20034;-72
2023/05/05 02:13:06;;;;;;;26.25;17.63;;;;;;;15.46;97.57;101333.88;5001631;28;20039;-72
2023/05/05 02:15:34;;;;;;;25.45;17.63;;;;;;;15.51;98.72;101334.38;4996133;28;20035;-72
2023/05/05 02:18:05;;;;;;;31.45;17.70;;;;;;;15.36;99.96;101333.75;4993284;28;20050;-73
2023/05/05 02:20:31;;;;;;;32.15;18.80;;;;;;;15.38;100.00;101336.31;5000044;28;20122;-71
2023/05/05 02:22:58;;;;;;;27.25;17.00;;;;;;;15.34;100.00;101332.13;5003700;28;20050;-71
2023/05/05 02:25:31;;;;;;;24.58;17.45;;;;;;;15.28;100.00;101333.44;4991949;28;21097;-71
2023/05/05 02:27:59;;;;;;;28.77;18.45;;;;;;;15.28;100.00;101338.81;5003174;28;20124;-72
2023/05/05 02:30:28;;;;;;;27.05;18.67;;;;;;;15.22;100.00;101333.91;4999273;28;20873;-72
2023/05/05 02:32:59;;;;;;;29.08;19.13;;;;;;;15.21;100.00;101334.88;4996370;28;20038;-72
2023/05/05 02:35:31;;;;;;;;;;;;;;;15.10;100.00;101337.50;5007823;28;20030;-72
2023/05/05 02:38:04;;;;;;;28.65;19.05;;;;;;;15.02;100.00;101335.41;4992994;28;19917;-72
2023/05/05 02:40:37;;;;;;;31.42;18.95;;;;;;;14.97;100.00;101329.53;4988748;28;20110;-71
2023/05/05 02:43:07;;;;;;;25.95;18.30;;;;;;;15.02;100.00;101321.97;5000654;28;20043;-71
2023/05/05 02:45:32;;;;;;;27.88;20.33;;;;;;;15.00;100.00;101332.81;4989469;28;20035;-72
2023/05/05 02:48:03;;;;;;;28.80;20.08;;;;;;;15.00;100.00;101324.75;5005070;28;20026;-72
2023/05/05 02:50:32;;;;;;;32.03;20.48;;;;;;;14.98;100.00;101324.03;5002804;28;20030;-71
2023/05/05 02:53:09;;;;;;;28.30;20.63;;;;;;;15.14;100.00;101322.88;5004439;28;20038;-72
2023/05/05 02:55:50;;;;;;;29.50;20.05;;;;;;;15.17;100.00;101319.97;5011484;28;20089;-72
2023/05/05 02:58:27;;;;;;;30.42;19.67;;;;;;;15.15;100.00;101314.69;4996793;28;20030;-71
2023/05/05 03:01:10;;;;;;;27.77;19.38;;;;;;;15.14;100.00;101314.81;5000048;28;20042;-72
2023/05/05 03:04:11;;;;;;;36.13;19.60;;;;;;;15.12;100.00;101324.84;4990636;28;20053;-72
2023/05/05 03:06:46;;;;;;;36.10;20.05;;;;;;;15.07;100.00;101327.88;4999940;28;21031;-73
2023/05/05 03:09:24;;;;;;;28.25;19.73;;;;;;;15.07;100.00;101325.19;5005103;28;20033;-72
2023/05/05 03:12:04;;;;;;;32.17;21.25;;;;;;;15.07;100.00;101327.00;4989883;28;20039;-72
2023/05/05 03:14:42;;;;;;;28.13;19.50;;;;;;;14.97;100.00;101326.84;4999608;28;20034;-72
2023/05/05 03:17:12;;;;;;;27.90;20.10;;;;;;;14.83;100.00;101327.00;4989839;28;20100;-72
2023/05/05 03:19:43;;;;;;;33.75;21.95;;;;;;;14.66;100.00;101334.47;5003884;28;20061;-71
2023/05/05 03:22:09;;;;;;;33.53;22.60;;;;;;;14.55;100.00;101336.19;4990119;28;20156;-72
2023/05/05 03:24:40;;;;;;;34.22;22.27;;;;;;;14.48;100.00;101339.31;4993381;28;20047;-72
2023/05/05 03:27:08;;;;;;;31.75;21.80;;;;;;;14.49;100.00;101335.66;4992063;28;20492;-71
2023/05/05 03:29:37;;;;;;;33.85;24.30;;;;;;;14.52;100.00;101345.31;5000420;28;20057;-72
2023/05/05 03:32:07;;;;;;;34.35;23.73;;;;;;;14.58;100.00;101344.03;5007303;28;20030;-72
2023/05/05 03:34:34;;;;;;;31.63;22.10;;;;;;;14.63;100.00;101337.34;4991422;28;20042;-72
2023/05/05 03:37:02;;;;;;;33.97;24.08;;;;;;;14.68;100.00;101343.25;4993516;28;20038;-72
2023/05/05 03:39:28;;;;;;;38.40;24.88;;;;;;;14.64;100.00;101340.88;5001413;28;20376;-72
2023/05/05 03:41:55;;;;;;;40.58;24.13;;;;;;;14.80;100.00;101344.16;4997261;28;20038;-71
2023/05/05 03:44:22;;;;;;;34.30;23.88;;;;;;;14.88;100.00;101346.31;4996954;28;20034;-72
2023/05/05 03:46:48;;;;;;;33.72;24.60;;;;;;;14.88;100.00;101357.03;4955869;28;1173658;-72
2023/05/05 03:49:15;;;;;;;35.78;25.65;;;;;;;14.88;100.00;101351.69;5000082;28;20041;-72
2023/05/05 03:51:42;;;;;;;38.45;24.95;;;;;;;14.85;100.00;101358.13;4988470;28;20488;-72
2023/05/05 03:54:07;;;;;;;34.65;25.08;;;;;;;14.83;100.00;101356.53;5001853;28;20030;-72
2023/05/05 03:56:33;;;;;;;40.70;25.80;;;;;;;14.72;100.00;101352.78;4999792;28;20058;-72
2023/05/05 03:58:59;;;;;;;36.45;25.75;;;;;;;14.64;100.00;101357.84;4994360;28;20034;-71
2023/05/05 04:01:27;;;;;;;33.13;23.90;;;;;;;14.61;100.00;101362.56;5003300;28;20049;-72
2023/05/05 04:03:53;;;;;;;33.78;25.50;;;;;;;14.57;100.00;101369.16;4997768;28;20049;-71
2023/05/05 04:06:19;;;;;;;39.58;27.23;;;;;;;14.56;100.00;101370.97;5007071;28;20863;-72
2023/05/05 04:08:45;;;;;;;38.95;26.98;;;;;;;14.51;100.00;101378.50;4998611;28;20038;-72
2023/05/05 04:11:11;;;;;;;42.13;27.88;;;;;;;14.47;100.00;101390.38;4993001;28;20109;-72
2023/05/05 04:13:40;;;;;;;37.05;26.27;;;;;;;14.48;100.00;101395.66;4992389;28;20049;-72
2023/05/05 04:16:07;;;;;;;42.75;27.88;;;;;;;14.47;100.00;101406.50;4994290;28;20487;-72
2023/05/05 04:18:33;;;;;;;40.88;27.35;;;;;;;14.50;100.00;101407.13;4998315;28;20726;-72
2023/05/05 04:20:58;;;;;;;43.65;28.67;;;;;;;14.50;100.00;101414.34;5008279;28;20037;-72
2023/05/05 04:23:25;;;;;;;44.15;27.27;;;;;;;14.63;100.00;101417.88;5005850;28;20050;-71
2023/05/05 04:25:52;;;;;;;39.08;28.17;;;;;;;14.47;100.00;101415.44;5004223;28;20039;-72
2023/05/05 04:28:19;;;;;;;43.35;27.95;;;;;;;14.55;100.00;101408.66;4996954;28;20109;-72
2023/05/05 04:30:45;;;;;;;41.60;27.08;;;;;;;14.45;100.00;101420.00;5003419;28;20889;-71
2023/05/05 04:33:11;;;;;;;37.97;25.25;;;;;;;14.53;100.00;101419.50;4994042;28;20177;-72
2023/05/05 04:35:37;;;;;;;37.25;24.80;;;;;;;14.62;100.00;101424.22;4994412;28;20041;-72
2023/05/05 04:38:02;;;;;;;35.03;22.80;;;;;;;14.90;100.00;101424.91;4995910;28;20041;-73
2023/05/05 04:40:29;;;;;;;36.63;23.95;;;;;;;15.33;100.00;101429.84;4978868;28;20038;-71
2023/05/05 04:42:56;;;;;;;35.47;22.80;;;;;;;15.46;100.00;101431.53;4996150;28;20050;-72
2023/05/05 04:45:22;;;;;;;35.13;23.10;;;;;;;15.77;100.00;101430.09;4996591;28;20030;-72
2023/05/05 04:47:48;;;;;;;34.28;21.77;;;;;;;15.85;100.00;101429.50;5001675;28;20078;-72
2023/05/05 04:50:15;;;;;;;33.33;22.45;;;;;;;15.95;100.00;101437.72;4997435;28;20848;-72
2023/05/05 04:52:40;;;;;;;36.03;23.00;;;;;;;16.11;100.00;101446.34;5007043;28;20030;-71
2023/05/05 04:55:09;;;;;;;32.20;21.23;;;;;;;16.83;100.00;101432.63;5007211;28;20038;-72
2023/05/05 04:57:35;;;;;;;27.00;19.88;;;;;;;17.18;100.00;101429.78;5005773;28;20041;-71
2023/05/05 05:00:03;;;;;;;30.92;17.77;;;;;;;16.64;100.00;101438.59;4993999;28;20045;-72
2023/05/05 05:02:29;;;;;;;26.65;17.63;;;;;;;16.28;100.00;101440.53;5001935;28;20046;-71
2023/05/05 05:04:54;;;;;;;24.85;17.83;;;;;;;16.05;100.00;101449.50;5005345;28;20042;-72
2023/05/05 05:07:20;;;;;;;24.33;15.65;;;;;;;15.84;100.00;101460.06;4999803;28;20419;-72
2023/05/05 05:09:45;;;;;;;22.23;15.48;;;;;;;16.81;100.00;101448.06;5005291;28;20586;-72
2023/05/05 05:12:11;;;;;;;20.90;14.15;;;;;;;17.66;100.00;101450.97;4996084;28;20045;-72
2023/05/05 05:14:37;;;;;;;19.95;14.15;;;;;;;17.96;98.05;101450.25;4997825;28;20096;-72
2023/05/05 05:17:03;;;;;;;22.38;14.32;;;;;;;18.26;94.65;101446.78;4991253;28;20049;-72
2023/05/05 05:19:28;;;;;;;24.23;15.10;;;;;;;18.51;90.76;101444.66;5022830;28;20103;-71
2023/05/05 05:21:54;;;;;;;18.15;13.90;;;;;;;17.97;91.93;101448.41;5004767;28;20428;-72
2023/05/05 05:24:19;;;;;;;18.23;13.65;;;;;;;17.81;93.48;101455.09;5001867;28;20035;-73
2023/05/05 05:26:45;;;;;;;22.05;13.77;;;;;;;17.52;96.29;101453.94;5016860;28;20225;-72
2023/05/05 05:29:11;;;;;;;17.98;12.95;;;;;;;17.16;97.88;101458.69;5004696;28;20066;-72
2023/05/05 05:31:38;;;;;;;19.00;12.40;;;;;;;17.36;98.55;101462.44;5006413;28;20050;-72
2023/05/05 05:34:07;;;;;;;18.95;13.02;;;;;;;17.45;99.43;101453.59;5001386;28;20037;-71
2023/05/05 05:36:33;;;;;;;18.98;12.80;;;;;;;17.76;97.68;101451.94;5008693;28;20032;-72
2023/05/05 05:38:59;;;;;;;19.05;12.57;;;;;;;18.06;94.20;101453.03;5007094;28;20037;-72
2023/05/05 05:41:25;;;;;;;18.45;12.32;;;;;;;18.26;93.22;101457.56;5003553;28;20042;-72
2023/05/05 05:43:53;;;;;;;17.48;11.77;;;;;;;18.17;93.29;101454.81;4997533;28;20367;-72
2023/05/05 05:46:18;;;;;;;15.20;11.70;;;;;;;18.20;92.90;101451.84;5008036;28;20400;-71
2023/05/05 05:48:45;;;;;;;17.40;10.73;;;;;;;18.32;92.31;101454.38;5005662;28;20041;-72
2023/05/05 05:51:11;;;;;;;17.67;11.40;;;;;;;18.38;92.71;101464.63;5001864;28;20038;-71
2023/05/05 05:53:36;;;;;;;16.85;10.45;;;;;;;18.53;92.21;101470.56;5004568;28;20034;-72
2023/05/05 05:56:03;;;;;;;15.48;10.77;;;;;;;19.03;88.79;101470.69;5015284;28;20786;-72
2023/05/05 05:58:28;;;;;;;18.25;10.48;;;;;;;19.55;86.45;101465.97;5019697;28;20104;-72
2023/05/05 06:00:54;;;;;;;16.55;10.18;;;;;;;19.91;83.65;101458.19;5005891;28;20053;-73
2023/05/05 06:03:19;;;;;;;14.57;9.25;;;;;;;20.12;80.53;101468.84;5003095;28;20042;-73
2023/05/05 06:05:45;;;;;;;13.82;9.52;;;;;;;19.99;80.01;101465.59;4999946;28;20038;-72
2023/05/05 06:08:11;;;;;;;13.93;10.15;;;;;;;20.72;77.38;101455.91;5007477;28;20054;-73
2023/05/05 06:10:42;;;;;;;14.98;9.63;;;;;;;20.80;75.40;101455.19;5011447;28;20037;-72
2023/05/05 06:13:13;;;;;;;14.75;9.93;;;;;;;21.30;74.04;101457.53;5001051;28;20034;-73
2023/05/05 06:15:43;;;;;;;13.88;9.35;;;;;;;21.28;71.24;101459.50;5014125;28;20548;-73
2023/05/05 06:18:10;;;;;;;12.63;9.55;;;;;;;21.19;71.51;101454.00;5001305;28;20032;-72
2023/05/05 06:20:36;;;;;;;16.33;9.30;;;;;;;20.96;71.73;101460.81;5002365;28;20038;-73
2023/05/05 06:23:02;;;;;;;14.95;8.30;;;;;;;21.08;71.35;101462.31;5013529;28;20046;-73
2023/05/05 06:25:31;;;;;;;13.85;8.57;;;;;;;20.89;71.10;101470.56;5004204;28;20034;-72
2023/05/05 06:27:56;;;;;;;16.17;8.80;;;;;;;20.51;71.54;101476.97;5007547;28;20045;-73
2023/05/05 06:30:22;;;;;;;11.30;8.38;;;;;;;20.94;71.65;101473.69;5007220;28;20049;-72
2023/05/05 06:32:47;;;;;;;12.48;8.63;;;;;;;20.95;71.28;101469.97;5006472;28;20038;-73
2023/05/05 06:35:13;;;;;;;14.68;8.80;;;;;;;21.16;71.65;101476.00;5005726;28;20045;-73
2023/05/05 06:37:43;;;;;;;13.65;9.25;;;;;;;20.70;70.78;101482.34;5005567;28;20034;-71
2023/05/05 06:40:09;;;;;;;14.93;9.32;;;;;;;20.80;71.95;101479.59;5002439;28;20053;-72
2023/05/05 06:42:35;;;;;;;18.38;10.63;;;;;;;20.84;71.85;101486.44;4999290;28;20046;-72
2023/05/05 06:45:03;;;;;;;14.95;9.77;;;;;;;21.40;71.30;101480.06;4985162;28;20041;-73
2023/05/05 06:47:28;;;;;;;13.30;8.82;;;;;;;21.34;71.25;101473.38;4999623;28;20709;-72
2023/05/05 06:49:54;;;;;;;17.63;9.77;;;;;;;21.28;71.49;101476.63;5003732;28;20039;-72
2023/05/05 06:52:24;;;;;;;12.70;9.00;;;;;;;21.16;70.45;101483.28;5003748;28;20033;-72
2023/05/05 06:54:54;;;;;;;17.63;10.15;;;;;;;21.45;71.29;101477.75;5003009;28;20073;-71
2023/05/05 06:57:19;;;;;;;16.45;10.10;;;;;;;20.96;71.08;101487.94;5002068;28;20151;-72
2023/05/05 06:59:45;;;;;;;13.07;9.82;;;;;;;21.21;71.27;101487.25;5003544;28;20073;-72
2023/05/05 07:02:10;;;;;;;12.13;9.40;;;;;;;21.71;71.39;101485.97;4999797;28;20030;-72
2023/05/05 07:04:36;;;;;;;15.43;9.88;;;;;;;21.42;69.50;101486.16;5012099;28;21166;-72
2023/05/05 07:07:01;;;;;;;17.20;10.40;;;;;;;21.81;69.57;101484.03;5009316;28;20042;-72
2023/05/05 07:09:26;;;;;;;18.48;9.85;;;;;;;21.66;69.46;101488.31;5002609;28;20046;-73
2023/05/05 07:11:52;;;;;;;14.73;10.60;;;;;;;21.73;69.32;101482.09;5005492;28;20045;-73
2023/05/05 07:14:17;;;;;;;23.25;10.90;;;;;;;22.07;66.92;101485.97;5007127;28;20030;-73
2023/05/05 07:16:43;;;;;;;15.48;9.88;;;;;;;21.55;66.95;101481.25;5024190;28;20109;-72
2023/05/05 07:19:11;;;;;;;18.83;9.25;;;;;;;21.87;67.49;101498.88;4998782;28;20041;-72
2023/05/05 07:21:38;;;;;;;16.15;9.65;;;;;;;21.58;66.89;101499.06;5000872;28;20061;-71
2023/05/05 07:24:04;;;;;;;14.98;9.73;;;;;;;21.52;68.28;101505.09;5004438;28;20043;-72
2023/05/05 07:26:31;;;;;;;12.57;9.00;;;;;;;21.33;69.90;101517.78;5004270;28;20031;-71
2023/05/05 07:29:01;;;;;;;17.38;10.13;;;;;;;21.24;68.53;101518.66;5004878;28;20967;-72
2023/05/05 07:31:26;;;;;;;18.25;10.38;;;;;;;21.23;68.54;101516.09;4991482;28;20160;-71
2023/05/05 07:33:52;;;;;;;14.75;9.40;;;;;;;21.83;68.84;101511.88;5003743;28;20045;-71
2023/05/05 07:36:18;;;;;;;15.60;9.15;;;;;;;21.83;67.24;101513.75;5004152;28;20037;-72
2023/05/05 07:38:44;;;;;;;13.45;9.75;;;;;;;21.88;65.07;101509.56;5002664;28;20782;-72
2023/05/05 07:41:12;;;;;;;14.85;9.88;;;;;;;21.95;66.73;101510.66;4998442;28;20041;-72
2023/05/05 07:43:40;;;;;;;15.18;9.68;;;;;;;21.71;68.38;101524.00;5003088;28;20038;-72
2023/05/05 07:46:06;;;;;;;16.92;9.20;;;;;;;21.89;67.13;101526.75;4996700;28;20072;-73
2023/05/05 07:48:31;;;;;;;16.45;9.65;;;;;;;21.66;67.04;101527.16;5000312;28;20492;-72
2023/05/05 07:50:57;;;;;;;13.05;9.32;;;;;;;21.75;67.23;101527.25;5027476;28;20057;-72
2023/05/05 07:53:23;;;;;;;14.55;9.82;;;;;;;21.83;66.32;101521.91;5003607;28;20033;-72
2023/05/05 07:55:48;;;;;;;13.02;9.55;;;;;;;22.15;65.16;101522.25;5003962;28;20045;-75
2023/05/05 07:58:14;;;;;;;14.90;9.60;;;;;;;22.15;67.03;101532.28;5006965;28;20050;-75
2023/05/05 08:00:41;;;;;;;16.58;9.95;;;;;;;22.02;65.81;101523.63;5004884;28;20113;-72
2023/05/05 08:03:07;;;;;;;14.82;10.40;;;;;;;22.36;65.22;101527.38;5004271;28;20117;-73
2023/05/05 08:05:32;;;;;;;13.50;10.38;;;;;;;22.41;65.71;101530.47;4993292;28;20140;-72
2023/05/05 08:07:58;;;;;;;19.95;11.20;;;;;;;22.41;64.83;101526.91;5001112;28;20065;-72
2023/05/05 08:10:23;;;;;;;17.73;11.73;;;;;;;22.61;65.34;101527.56;4994204;28;20828;-72
2023/05/05 08:12:49;;;;;;;18.65;10.90;;;;;;;23.07;65.49;101537.22;5000872;28;20053;-72
2023/05/05 08:15:15;;;;;;;15.82;10.85;;;;;;;22.66;63.74;101536.09;5000963;28;20097;-73
2023/05/05 08:17:58;;;;;;;18.42;10.70;;;;;;;22.63;66.57;101530.97;5004457;28;20088;-72
2023/05/05 08:20:27;;;;;;;18.27;10.00;;;;;;;22.77;62.89;101519.50;5002819;28;20237;-72
2023/05/05 08:22:53;;;;;;;17.95;11.65;;;;;;;22.51;64.97;101524.09;5000838;28;20197;-71
2023/05/05 08:25:18;;;;;;;20.23;11.43;;;;;;;22.81;65.88;101531.78;5004631;28;20999;-71
2023/05/05 08:27:44;;;;;;;15.13;10.55;;;;;;;22.86;66.13;101525.84;4996690;28;20037;-71
2023/05/05 08:30:10;;;;;;;22.45;13.07;;;;;;;23.20;67.20;101531.34;4998599;28;20088;-72
2023/05/05 08:32:37;;;;;;;14.88;11.98;;;;;;;23.37;65.90;101524.94;4999182;28;20938;-71
2023/05/05 08:35:05;;;;;;;20.35;12.43;;;;;;;23.72;65.70;101525.78;5005383;28;20037;-72
2023/05/05 08:37:30;;;;;;;15.88;11.18;;;;;;;23.69;66.06;101529.66;5002309;28;20030;-72
2023/05/05 08:39:57;;;;;;;17.17;11.48;;;;;;;23.43;66.65;101527.00;5003138;28;20038;-71
2023/05/05 08:42:23;;;;;;;11.70;7.18;;;;;;;23.37;59.41;101519.50;5002694;28;20045;-71
2023/05/05 08:44:48;;;;;;;12.13;8.00;;;;;;;22.92;62.38;101526.09;5004852;28;20030;-72
2023/05/05 08:47:15;;;;;;;14.05;8.07;;;;;;;23.13;61.07;101528.41;5010480;28;20049;-71
2023/05/05 08:49:45;;;;;;;13.65;7.75;;;;;;;22.96;60.45;101527.47;5005669;28;20064;-72
2023/05/05 08:52:27;;;;;;;14.50;8.18;;;;;;;23.19;60.60;101529.63;5005266;28;20030;-72
2023/05/05 08:55:00;;;;;;;;;;;;;;;23.34;62.61;101521.69;5003890;28;20053;-71
2023/05/05 08:57:56;;;;;;;12.15;8.32;;;;;;;23.35;61.11;101527.00;5007338;28;19921;-71
2023/05/05 09:00:23;;;;;;;12.93;8.68;;;;;;;23.34;61.09;101527.97;4986749;28;20042;-72
2023/05/05 09:02:49;;;;;;;15.32;8.98;;;;;;;23.64;59.85;101531.19;5014846;28;20053;-72
2023/05/05 09:05:15;;;;;;;17.08;8.43;;;;;;;23.43;61.42;101521.56;5005213;28;20070;-73
2023/05/05 09:07:42;;;;;;;16.95;8.20;;;;;;;23.68;58.53;101519.81;4999824;28;20582;-72
2023/05/05 09:10:11;;;;;;;14.52;7.78;;;;;;;23.81;59.27;101530.22;5004233;28;20040;-72
2023/05/05 09:12:40;;;;;;;8.50;5.15;;;;;;;24.10;58.36;101521.59;5003162;28;20038;-72
2023/05/05 09:15:12;;;;;;;9.35;5.97;;;;;;;23.34;56.61;101525.25;5004781;28;20040;-72
2023/05/05 09:17:39;;;;;;;11.02;6.88;;;;;;;24.32;56.66;101530.13;5004238;28;20049;-72
2023/05/05 09:20:06;;;;;;;11.18;6.72;;;;;;;24.19;56.91;101527.88;5003001;28;20026;-72
2023/05/05 09:22:34;;;;;;;13.05;6.00;;;;;;;24.69;53.67;101524.13;5003621;28;20144;-72
2023/05/05 09:25:00;;;;;;;9.18;5.30;;;;;;;24.82;53.83;101524.47;5006759;28;20037;-72
2023/05/05 09:27:26;;;;;;;9.50;6.53;;;;;;;24.82;54.49;101527.19;5000889;28;20129;-72
2023/05/05 09:29:53;;;;;;;12.05;5.18;;;;;;;24.68;52.26;101534.19;5003257;28;20034;-72
2023/05/05 09:32:19;;;;;;;7.97;3.83;;;;;;;25.05;52.21;101530.91;5002578;28;20034;-73
2023/05/05 09:34:57;;;;;;;8.88;4.15;;;;;;;24.99;50.20;101526.13;5008387;28;20129;-72
2023/05/05 09:37:30;;;;;;;8.68;4.85;;;;;;;25.34;52.01;101529.44;5006706;28;20142;-72
2023/05/05 09:39:59;;;;;;;7.97;4.75;;;;;;;24.96;50.63;101526.47;5001628;28;20902;-73
2023/05/05 09:42:26;;;;;;;8.98;3.38;;;;;;;24.97;51.66;101532.78;5008130;28;20154;-71
2023/05/05 09:44:55;;;;;;;5.97;2.80;;;;;;;24.83;49.85;101544.41;5007526;28;20042;-73
2023/05/05 09:47:35;;;;;;;8.23;4.35;;;;;;;24.63;49.87;101544.78;4990905;28;20042;-73
2023/05/05 09:50:01;;;;;;;9.18;4.38;;;;;;;24.64;51.42;101546.47;4999341;28;20034;-72
2023/05/05 09:52:27;;;;;;;8.38;3.72;;;;;;;24.33;51.52;101538.13;5017669;28;20022;-72
2023/05/05 09:54:56;;;;;;;6.65;4.28;;;;;;;24.72;51.97;101535.56;5001347;28;20053;-72
2023/05/05 09:57:30;;;;;;;10.02;4.93;;;;;;;24.35;51.55;101535.22;5004450;28;20038;-72
2023/05/05 10:00:00;;;;;;;9.85;5.00;;;;;;;24.36;53.41;101526.91;5001887;28;20034;-73
2023/05/05 10:02:37;;;;;;;6.40;4.18;;;;;;;24.54;52.35;101526.72;5001652;28;20042;-71
2023/05/05 10:05:14;;;;;;;10.38;5.65;;;;;;;24.10;54.06;101523.44;5007095;28;20045;-72
2023/05/05 10:07:42;;;;;;;10.25;5.72;;;;;;;24.43;52.32;101527.91;5001013;28;20034;-72
2023/05/05 10:10:14;;;;;;;9.30;5.03;;;;;;;24.56;53.12;101526.56;5003614;28;20034;-72
2023/05/05 10:12:39;;;;;;;;;;;;;;;24.45;53.63;101525.91;5005489;28;20022;-72
2023/05/05 10:15:07;;;;;;;7.25;4.43;;;;;;;24.24;53.35;101526.34;5004781;28;20532;-72
2023/05/05 10:17:44;;;;;;;8.93;4.65;;;;;;;24.16;53.00;101520.91;5005880;28;21405;-72
2023/05/05 10:20:12;;;;;;;7.80;5.07;;;;;;;23.35;54.07;101526.16;5005246;28;20030;-73
2023/05/05 10:22:40;;;;;;;35.90;5.30;;;;;;;23.49;54.23;101520.94;5003969;28;20116;-72
2023/05/05 10:25:14;;;;;;;8.05;5.10;;;;;;;23.68;55.29;101522.53;4999222;28;20042;-72
2023/05/05 10:27:43;;;;;;;10.73;5.57;;;;;;;23.62;54.80;101516.88;5002335;28;20041;-71
2023/05/05 10:30:19;;;;;;;9.73;6.13;;;;;;;23.57;54.78;101513.78;5003459;28;20038;-73
2023/05/05 10:32:57;;;;;;;9.05;5.03;;;;;;;23.67;55.83;101511.81;5001356;28;20041;-72
2023/05/05 10:35:31;;;;;;;10.35;5.45;;;;;;;23.63;55.34;101508.56;5000520;28;20045;-72
2023/05/05 10:37:59;;;;;;;10.60;5.32;;;;;;;23.49;56.06;101504.59;5004868;28;20046;-71
2023/05/05 10:40:24;;;;;;;10.68;4.00;;;;;;;24.11;54.58;101514.28;5002267;28;20041;-72
2023/05/05 10:42:52;;;;;;;10.95;3.88;;;;;;;24.14;54.68;101506.59;4998983;28;20045;-72
2023/05/05 10:45:18;;;;;;;7.63;4.20;;;;;;;24.08;54.98;101499.09;5000018;28;20038;-72
2023/05/05 10:47:44;;;;;;;10.80;5.82;;;;;;;24.02;54.35;101500.63;5004386;28;20502;-72
2023/05/05 10:50:37;;;;;;;8.55;5.15;;;;;;;24.35;55.10;101494.31;5005939;28;20030;-73
2023/05/05 10:53:20;;;;;;;10.68;4.43;;;;;;;24.35;53.29;101492.47;4996671;28;20038;-72
2023/05/05 10:56:03;;;;;;;9.07;4.88;;;;;;;24.09;54.88;101481.72;5000218;28;20350;-70
2023/05/05 10:58:40;;;;;;;10.43;5.75;;;;;;;24.30;55.29;101483.94;4997806;28;20612;-71
2023/05/05 11:01:06;;;;;;;10.40;6.00;;;;;;;24.20;53.79;101486.00;4997551;28;20029;-72
2023/05/05 11:03:32;;;;;;;13.15;5.63;;;;;;;24.47;54.66;101477.47;5005297;28;20136;-72
2023/05/05 11:06:06;;;;;;;10.60;5.88;;;;;;;24.71;54.63;101484.75;4994614;28;20109;-73
2023/05/05 11:08:50;;;;;;;14.27;6.95;;;;;;;24.51;54.89;101476.13;5013731;28;20088;-73
2023/05/05 11:11:15;;;;;;;16.80;6.78;;;;;;;24.35;53.76;101473.38;4999393;28;20177;-72
2023/05/05 11:13:41;;;;;;;14.10;6.60;;;;;;;24.14;53.62;101473.03;4999610;28;20097;-70
2023/05/05 11:16:59;;;;;;;14.75;8.00;;;;;;;24.16;52.51;101468.28;5004660;28;20041;-72
2023/05/05 11:19:43;;;;;;;7.18;5.75;;;;;;;24.65;54.83;101470.94;4989419;28;20346;-70
2023/05/05 11:22:12;;;;;;;8.32;6.25;;;;;;;24.69;52.61;101470.44;5001619;28;20066;-71